Fulton, Arkansas
Current Conditions -  °F | °C
As of 10:53 AM on Friday 28 Nov 2014 (Local Time) from KTXK Reporting Station
Clear Clear  
Wind Chill: 53°   Ceiling: Unl
Heat Index: 53°   Visibility: 10mi
Dew Point: 35°   Wind: 13mph
Humidity: 50%   Direction: 180°S
Pressure: 30.3"   Gusts: NA
Location:  33.61°N, 93.81°W
Report Text: KTXK 281653Z 18011KT 10SM CLR 12/02 A3030 RMK AO2 SLP258 T01170017
Loading
Personal Weather Stations






























Interactive Weather Map New forecast layout! Learn more

10-Day Weather Forecast

Advertisements
Track Severe Weather on mobile